Weather at Athens Hellenikon International Airport [CLOSED]

Public forecast

Using degrees Celsius for public forecast. Weather courtesy of forecast.io.

Closest aviation weather report (METAR) to Athens Hellenikon International Airport

Report is more than 6 hours old.

Closest report is Athens Eleftherios Venizelos International Airport, 10.5 nm (19.4 km) ENE.

2022/11/14 15:20 (retrieved 2 years ago)

LGAV 141520Z 06011KT 9999 FEW030 16/10 Q1022 NOSIG

Closest aviation forecast (TAF) to Athens Hellenikon International Airport

Forecast is more than 12 hours old.

Closest forecast is Athens Eleftherios Venizelos International Airport, 10.5 nm (19.4 km) ENE.

2023/02/22 18:12 (retrieved 1 year ago)

TAF TAF LGAV 221700Z 2218/2318 VRB05KT 9999 FEW025